< < Back
Terminal Aerodrome Forecast


Current Version              Previous Versions:   1  2  3  4  5  6  7  8  9  

Terminal Aerodrome Forecast

447
FTUS44 KBMX 301729
TAFMGM
TAF
KMGM 301729Z 3018/3118 27005KT P6SM SCT040
     FM301900 24006KT P6SM VCTS BKN050CB
     FM310300 00000KT P6SM SCT040
     FM311400 27002KT P6SM FEW050 SCT250=

Latest METAR

620
SAUS80 KWBC 310900
MTRMGM
METAR KMGM 310853Z 19003KT 9SM CLR 24/22 A3000 RMK AO2 SLP153 T02390217
58006


USA.gov is the U.S. government's official web portal to all federal, state and local government web resources and services.